sensor_id;sensor_type;location;lat;lon;timestamp;P1;durP1;ratioP1;P2;durP2;ratioP2
72125;SDS011;59999;51.676;22.650;2023-04-19T00:00:47;14.77;;;7.13;;
72125;SDS011;59999;51.676;22.650;2023-04-19T00:03:16;13.98;;;6.93;;
72125;SDS011;59999;51.676;22.650;2023-04-19T00:05:42;14.47;;;6.70;;
72125;SDS011;59999;51.676;22.650;2023-04-19T00:08:08;14.68;;;7.10;;
72125;SDS011;59999;51.676;22.650;2023-04-19T00:10:35;14.10;;;7.03;;
72125;SDS011;59999;51.676;22.650;2023-04-19T00:13:01;14.93;;;6.45;;
72125;SDS011;59999;51.676;22.650;2023-04-19T00:15:27;13.35;;;6.47;;
72125;SDS011;59999;51.676;22.650;2023-04-19T00:17:53;12.67;;;6.43;;
72125;SDS011;59999;51.676;22.650;2023-04-19T00:20:20;16.40;;;6.85;;
72125;SDS011;59999;51.676;22.650;2023-04-19T00:22:46;13.18;;;6.55;;
72125;SDS011;59999;51.676;22.650;2023-04-19T00:25:12;14.18;;;6.70;;
72125;SDS011;59999;51.676;22.650;2023-04-19T00:27:38;13.50;;;6.43;;
72125;SDS011;59999;51.676;22.650;2023-04-19T00:30:04;14.57;;;6.60;;
72125;SDS011;59999;51.676;22.650;2023-04-19T00:32:30;13.95;;;6.47;;
72125;SDS011;59999;51.676;22.650;2023-04-19T00:34:57;14.32;;;6.68;;
72125;SDS011;59999;51.676;22.650;2023-04-19T00:37:22;14.90;;;6.50;;
72125;SDS011;59999;51.676;22.650;2023-04-19T00:39:48;15.27;;;6.55;;
72125;SDS011;59999;51.676;22.650;2023-04-19T00:42:14;12.95;;;6.55;;
72125;SDS011;59999;51.676;22.650;2023-04-19T00:44:41;15.87;;;6.77;;
72125;SDS011;59999;51.676;22.650;2023-04-19T00:47:06;16.23;;;7.32;;
72125;SDS011;59999;51.676;22.650;2023-04-19T00:49:33;13.45;;;6.45;;
72125;SDS011;59999;51.676;22.650;2023-04-19T00:51:59;12.98;;;6.15;;
72125;SDS011;59999;51.676;22.650;2023-04-19T00:54:25;13.45;;;6.50;;
72125;SDS011;59999;51.676;22.650;2023-04-19T00:56:51;12.13;;;5.87;;
72125;SDS011;59999;51.676;22.650;2023-04-19T00:59:17;14.55;;;5.95;;
72125;SDS011;59999;51.676;22.650;2023-04-19T01:01:43;12.40;;;6.10;;
72125;SDS011;59999;51.676;22.650;2023-04-19T01:04:10;12.52;;;5.68;;
72125;SDS011;59999;51.676;22.650;2023-04-19T01:06:36;12.33;;;5.80;;
72125;SDS011;59999;51.676;22.650;2023-04-19T01:09:04;12.80;;;6.32;;
72125;SDS011;59999;51.676;22.650;2023-04-19T01:11:30;12.80;;;5.72;;
72125;SDS011;59999;51.676;22.650;2023-04-19T01:13:57;12.00;;;5.88;;
72125;SDS011;59999;51.676;22.650;2023-04-19T01:16:26;11.13;;;5.20;;
72125;SDS011;59999;51.676;22.650;2023-04-19T01:18:53;13.32;;;5.65;;
72125;SDS011;59999;51.676;22.650;2023-04-19T01:21:19;13.45;;;6.07;;
72125;SDS011;59999;51.676;22.650;2023-04-19T01:23:47;12.80;;;5.70;;
72125;SDS011;59999;51.676;22.650;2023-04-19T01:26:12;12.40;;;5.80;;
72125;SDS011;59999;51.676;22.650;2023-04-19T01:28:39;12.32;;;5.78;;
72125;SDS011;59999;51.676;22.650;2023-04-19T01:31:04;13.93;;;5.72;;
72125;SDS011;59999;51.676;22.650;2023-04-19T01:33:31;10.80;;;4.82;;
72125;SDS011;59999;51.676;22.650;2023-04-19T01:35:57;12.67;;;5.93;;
72125;SDS011;59999;51.676;22.650;2023-04-19T01:38:23;12.88;;;6.20;;
72125;SDS011;59999;51.676;22.650;2023-04-19T01:40:48;13.37;;;5.23;;
72125;SDS011;59999;51.676;22.650;2023-04-19T01:43:15;12.73;;;5.65;;
72125;SDS011;59999;51.676;22.650;2023-04-19T01:45:42;11.48;;;5.40;;
72125;SDS011;59999;51.676;22.650;2023-04-19T01:48:08;11.32;;;5.30;;
72125;SDS011;59999;51.676;22.650;2023-04-19T01:50:33;13.07;;;5.57;;
72125;SDS011;59999;51.676;22.650;2023-04-19T01:53:00;12.20;;;5.68;;
72125;SDS011;59999;51.676;22.650;2023-04-19T01:55:25;11.40;;;5.28;;
72125;SDS011;59999;51.676;22.650;2023-04-19T01:57:51;12.15;;;5.35;;
72125;SDS011;59999;51.676;22.650;2023-04-19T02:00:19;11.80;;;5.47;;
72125;SDS011;59999;51.676;22.650;2023-04-19T02:02:45;10.38;;;5.25;;
72125;SDS011;59999;51.676;22.650;2023-04-19T02:05:11;13.02;;;6.10;;
72125;SDS011;59999;51.676;22.650;2023-04-19T02:07:38;14.05;;;5.82;;
72125;SDS011;59999;51.676;22.650;2023-04-19T02:10:04;11.37;;;5.10;;
72125;SDS011;59999;51.676;22.650;2023-04-19T02:12:31;12.48;;;5.72;;
72125;SDS011;59999;51.676;22.650;2023-04-19T02:14:59;15.27;;;6.32;;
72125;SDS011;59999;51.676;22.650;2023-04-19T02:17:27;12.27;;;5.47;;
72125;SDS011;59999;51.676;22.650;2023-04-19T02:19:53;12.15;;;5.40;;
72125;SDS011;59999;51.676;22.650;2023-04-19T02:22:19;12.37;;;5.70;;
72125;SDS011;59999;51.676;22.650;2023-04-19T02:24:45;20.20;;;6.70;;
72125;SDS011;59999;51.676;22.650;2023-04-19T02:27:12;13.82;;;5.72;;
72125;SDS011;59999;51.676;22.650;2023-04-19T02:29:38;15.18;;;6.40;;
72125;SDS011;59999;51.676;22.650;2023-04-19T02:32:04;13.07;;;5.70;;
72125;SDS011;59999;51.676;22.650;2023-04-19T02:34:31;13.95;;;6.38;;
72125;SDS011;59999;51.676;22.650;2023-04-19T02:36:58;17.80;;;6.43;;
72125;SDS011;59999;51.676;22.650;2023-04-19T02:39:24;22.38;;;9.50;;
72125;SDS011;59999;51.676;22.650;2023-04-19T02:41:50;18.83;;;7.80;;
72125;SDS011;59999;51.676;22.650;2023-04-19T02:44:16;14.50;;;5.55;;
72125;SDS011;59999;51.676;22.650;2023-04-19T02:46:48;15.05;;;6.13;;
72125;SDS011;59999;51.676;22.650;2023-04-19T02:49:17;13.48;;;6.03;;
72125;SDS011;59999;51.676;22.650;2023-04-19T02:51:44;15.82;;;6.57;;
72125;SDS011;59999;51.676;22.650;2023-04-19T02:54:11;13.13;;;6.27;;
72125;SDS011;59999;51.676;22.650;2023-04-19T02:56:37;13.75;;;6.55;;
72125;SDS011;59999;51.676;22.650;2023-04-19T02:59:03;14.88;;;5.97;;
72125;SDS011;59999;51.676;22.650;2023-04-19T03:01:30;12.52;;;5.97;;
72125;SDS011;59999;51.676;22.650;2023-04-19T03:03:56;16.40;;;7.17;;
72125;SDS011;59999;51.676;22.650;2023-04-19T03:06:22;19.60;;;7.65;;
72125;SDS011;59999;51.676;22.650;2023-04-19T03:08:48;15.95;;;7.25;;
72125;SDS011;59999;51.676;22.650;2023-04-19T03:11:15;14.90;;;6.63;;
72125;SDS011;59999;51.676;22.650;2023-04-19T03:13:41;17.52;;;6.82;;
72125;SDS011;59999;51.676;22.650;2023-04-19T03:16:08;13.33;;;6.00;;
72125;SDS011;59999;51.676;22.650;2023-04-19T03:18:34;17.17;;;7.00;;
72125;SDS011;59999;51.676;22.650;2023-04-19T03:21:01;14.95;;;6.20;;
72125;SDS011;59999;51.676;22.650;2023-04-19T03:23:28;16.58;;;6.45;;
72125;SDS011;59999;51.676;22.650;2023-04-19T03:25:54;19.52;;;7.75;;
72125;SDS011;59999;51.676;22.650;2023-04-19T03:28:21;12.80;;;5.25;;
72125;SDS011;59999;51.676;22.650;2023-04-19T03:30:47;13.32;;;6.07;;
72125;SDS011;59999;51.676;22.650;2023-04-19T03:33:13;14.52;;;6.85;;
72125;SDS011;59999;51.676;22.650;2023-04-19T03:35:39;14.77;;;6.20;;
72125;SDS011;59999;51.676;22.650;2023-04-19T03:38:05;13.45;;;6.50;;
72125;SDS011;59999;51.676;22.650;2023-04-19T03:40:32;15.45;;;6.32;;
72125;SDS011;59999;51.676;22.650;2023-04-19T03:42:58;15.68;;;6.75;;
72125;SDS011;59999;51.676;22.650;2023-04-19T03:45:24;17.80;;;7.53;;
72125;SDS011;59999;51.676;22.650;2023-04-19T03:47:51;15.25;;;6.82;;
72125;SDS011;59999;51.676;22.650;2023-04-19T03:50:17;16.15;;;6.60;;
72125;SDS011;59999;51.676;22.650;2023-04-19T03:52:43;15.75;;;6.78;;
72125;SDS011;59999;51.676;22.650;2023-04-19T03:55:09;15.77;;;7.17;;
72125;SDS011;59999;51.676;22.650;2023-04-19T03:57:36;12.90;;;5.93;;
72125;SDS011;59999;51.676;22.650;2023-04-19T04:00:03;18.08;;;7.90;;
72125;SDS011;59999;51.676;22.650;2023-04-19T04:02:33;16.65;;;6.70;;
72125;SDS011;59999;51.676;22.650;2023-04-19T04:05:02;17.35;;;7.22;;
72125;SDS011;59999;51.676;22.650;2023-04-19T04:07:28;18.57;;;7.93;;
72125;SDS011;59999;51.676;22.650;2023-04-19T04:09:54;15.05;;;7.03;;
72125;SDS011;59999;51.676;22.650;2023-04-19T04:12:20;18.38;;;8.27;;
72125;SDS011;59999;51.676;22.650;2023-04-19T04:14:46;17.38;;;7.28;;
72125;SDS011;59999;51.676;22.650;2023-04-19T04:17:12;15.77;;;7.63;;
72125;SDS011;59999;51.676;22.650;2023-04-19T04:19:38;14.77;;;6.80;;
72125;SDS011;59999;51.676;22.650;2023-04-19T04:22:05;15.88;;;6.88;;
72125;SDS011;59999;51.676;22.650;2023-04-19T04:24:36;15.23;;;7.17;;
72125;SDS011;59999;51.676;22.650;2023-04-19T04:27:08;15.40;;;7.30;;
72125;SDS011;59999;51.676;22.650;2023-04-19T04:29:36;15.60;;;6.88;;
72125;SDS011;59999;51.676;22.650;2023-04-19T04:32:05;16.45;;;7.45;;
72125;SDS011;59999;51.676;22.650;2023-04-19T04:34:33;16.40;;;6.97;;
72125;SDS011;59999;51.676;22.650;2023-04-19T04:37:01;21.43;;;7.63;;
72125;SDS011;59999;51.676;22.650;2023-04-19T04:39:27;16.88;;;7.80;;
72125;SDS011;59999;51.676;22.650;2023-04-19T04:41:53;16.98;;;8.18;;
72125;SDS011;59999;51.676;22.650;2023-04-19T04:44:22;15.07;;;6.60;;
72125;SDS011;59999;51.676;22.650;2023-04-19T04:46:48;17.65;;;7.40;;
72125;SDS011;59999;51.676;22.650;2023-04-19T04:49:14;14.00;;;6.77;;
72125;SDS011;59999;51.676;22.650;2023-04-19T04:51:40;19.23;;;7.05;;
72125;SDS011;59999;51.676;22.650;2023-04-19T04:54:06;17.33;;;7.35;;
72125;SDS011;59999;51.676;22.650;2023-04-19T04:56:32;17.63;;;7.83;;
72125;SDS011;59999;51.676;22.650;2023-04-19T04:58:58;16.35;;;7.25;;
72125;SDS011;59999;51.676;22.650;2023-04-19T05:01:24;13.27;;;6.70;;
72125;SDS011;59999;51.676;22.650;2023-04-19T05:03:50;15.38;;;7.10;;
72125;SDS011;59999;51.676;22.650;2023-04-19T05:06:16;15.97;;;7.00;;
72125;SDS011;59999;51.676;22.650;2023-04-19T05:08:43;14.05;;;6.97;;
72125;SDS011;59999;51.676;22.650;2023-04-19T05:11:09;15.93;;;7.10;;
72125;SDS011;59999;51.676;22.650;2023-04-19T05:13:35;14.95;;;7.18;;
72125;SDS011;59999;51.676;22.650;2023-04-19T05:16:01;13.30;;;6.77;;
72125;SDS011;59999;51.676;22.650;2023-04-19T05:18:27;15.50;;;7.00;;
72125;SDS011;59999;51.676;22.650;2023-04-19T05:20:53;15.13;;;7.13;;
72125;SDS011;59999;51.676;22.650;2023-04-19T05:23:19;15.75;;;6.35;;
72125;SDS011;59999;51.676;22.650;2023-04-19T05:25:45;14.67;;;6.83;;
72125;SDS011;59999;51.676;22.650;2023-04-19T05:28:12;16.40;;;7.15;;
72125;SDS011;59999;51.676;22.650;2023-04-19T05:30:38;16.50;;;7.18;;
72125;SDS011;59999;51.676;22.650;2023-04-19T05:33:04;15.45;;;6.60;;
72125;SDS011;59999;51.676;22.650;2023-04-19T05:35:30;14.53;;;7.17;;
72125;SDS011;59999;51.676;22.650;2023-04-19T05:37:56;15.40;;;7.38;;
72125;SDS011;59999;51.676;22.650;2023-04-19T05:40:22;17.10;;;7.65;;
72125;SDS011;59999;51.676;22.650;2023-04-19T05:42:50;15.30;;;7.10;;
72125;SDS011;59999;51.676;22.650;2023-04-19T05:45:16;17.15;;;7.18;;
72125;SDS011;59999;51.676;22.650;2023-04-19T05:47:45;15.38;;;7.13;;
72125;SDS011;59999;51.676;22.650;2023-04-19T05:50:11;15.40;;;7.30;;
72125;SDS011;59999;51.676;22.650;2023-04-19T05:52:37;15.50;;;7.72;;
72125;SDS011;59999;51.676;22.650;2023-04-19T05:55:03;16.65;;;7.30;;
72125;SDS011;59999;51.676;22.650;2023-04-19T05:57:29;15.20;;;7.40;;
72125;SDS011;59999;51.676;22.650;2023-04-19T05:59:55;14.80;;;7.10;;
72125;SDS011;59999;51.676;22.650;2023-04-19T06:02:21;14.60;;;7.45;;
72125;SDS011;59999;51.676;22.650;2023-04-19T06:04:47;16.60;;;7.53;;
72125;SDS011;59999;51.676;22.650;2023-04-19T06:07:14;14.60;;;6.80;;
72125;SDS011;59999;51.676;22.650;2023-04-19T06:09:39;14.32;;;6.60;;
72125;SDS011;59999;51.676;22.650;2023-04-19T06:12:06;15.60;;;7.22;;
72125;SDS011;59999;51.676;22.650;2023-04-19T06:14:31;15.05;;;7.40;;
72125;SDS011;59999;51.676;22.650;2023-04-19T06:16:58;15.77;;;7.40;;
72125;SDS011;59999;51.676;22.650;2023-04-19T06:19:23;16.52;;;7.60;;
72125;SDS011;59999;51.676;22.650;2023-04-19T06:21:49;18.20;;;8.30;;
72125;SDS011;59999;51.676;22.650;2023-04-19T06:24:15;15.00;;;7.40;;
72125;SDS011;59999;51.676;22.650;2023-04-19T06:26:41;15.95;;;7.70;;
72125;SDS011;59999;51.676;22.650;2023-04-19T06:29:07;13.70;;;7.28;;
72125;SDS011;59999;51.676;22.650;2023-04-19T06:31:33;17.13;;;7.80;;
72125;SDS011;59999;51.676;22.650;2023-04-19T06:33:59;18.30;;;8.53;;
72125;SDS011;59999;51.676;22.650;2023-04-19T06:36:25;15.93;;;7.57;;
72125;SDS011;59999;51.676;22.650;2023-04-19T06:38:51;16.55;;;8.27;;
72125;SDS011;59999;51.676;22.650;2023-04-19T06:41:17;18.70;;;8.38;;
72125;SDS011;59999;51.676;22.650;2023-04-19T06:43:43;13.83;;;7.40;;
72125;SDS011;59999;51.676;22.650;2023-04-19T06:46:09;17.85;;;8.18;;
72125;SDS011;59999;51.676;22.650;2023-04-19T06:48:38;17.20;;;7.82;;
72125;SDS011;59999;51.676;22.650;2023-04-19T06:51:04;17.58;;;8.18;;
72125;SDS011;59999;51.676;22.650;2023-04-19T06:53:30;16.80;;;7.80;;
72125;SDS011;59999;51.676;22.650;2023-04-19T06:56:00;16.73;;;8.32;;
72125;SDS011;59999;51.676;22.650;2023-04-19T06:58:27;16.67;;;8.05;;
72125;SDS011;59999;51.676;22.650;2023-04-19T07:00:53;16.55;;;7.90;;
72125;SDS011;59999;51.676;22.650;2023-04-19T07:03:19;15.95;;;8.10;;
72125;SDS011;59999;51.676;22.650;2023-04-19T07:05:46;18.90;;;8.43;;
72125;SDS011;59999;51.676;22.650;2023-04-19T07:08:12;17.05;;;7.65;;
72125;SDS011;59999;51.676;22.650;2023-04-19T07:10:38;15.65;;;7.53;;
72125;SDS011;59999;51.676;22.650;2023-04-19T07:13:04;16.15;;;7.72;;
72125;SDS011;59999;51.676;22.650;2023-04-19T07:15:30;18.47;;;7.73;;
72125;SDS011;59999;51.676;22.650;2023-04-19T07:17:56;16.48;;;8.10;;
72125;SDS011;59999;51.676;22.650;2023-04-19T07:20:22;15.95;;;8.38;;
72125;SDS011;59999;51.676;22.650;2023-04-19T07:22:48;14.23;;;7.53;;
72125;SDS011;59999;51.676;22.650;2023-04-19T07:25:14;17.27;;;7.78;;
72125;SDS011;59999;51.676;22.650;2023-04-19T07:27:40;17.30;;;8.75;;
72125;SDS011;59999;51.676;22.650;2023-04-19T07:30:06;17.95;;;7.85;;
72125;SDS011;59999;51.676;22.650;2023-04-19T07:32:32;20.30;;;9.20;;
72125;SDS011;59999;51.676;22.650;2023-04-19T07:34:59;19.60;;;9.13;;
72125;SDS011;59999;51.676;22.650;2023-04-19T07:37:25;41.97;;;16.30;;
72125;SDS011;59999;51.676;22.650;2023-04-19T07:39:51;21.73;;;10.93;;
72125;SDS011;59999;51.676;22.650;2023-04-19T07:42:17;19.03;;;9.60;;
72125;SDS011;59999;51.676;22.650;2023-04-19T07:44:43;16.95;;;8.60;;
72125;SDS011;59999;51.676;22.650;2023-04-19T07:47:09;18.20;;;8.80;;
72125;SDS011;59999;51.676;22.650;2023-04-19T07:49:35;18.27;;;9.25;;
72125;SDS011;59999;51.676;22.650;2023-04-19T07:52:05;18.53;;;9.33;;
72125;SDS011;59999;51.676;22.650;2023-04-19T07:54:32;18.05;;;9.63;;
72125;SDS011;59999;51.676;22.650;2023-04-19T07:56:58;18.63;;;10.05;;
72125;SDS011;59999;51.676;22.650;2023-04-19T07:59:24;19.87;;;9.50;;
72125;SDS011;59999;51.676;22.650;2023-04-19T08:01:50;20.48;;;10.18;;
72125;SDS011;59999;51.676;22.650;2023-04-19T08:04:16;19.10;;;10.20;;
72125;SDS011;59999;51.676;22.650;2023-04-19T08:06:44;19.58;;;10.05;;
72125;SDS011;59999;51.676;22.650;2023-04-19T08:09:10;20.15;;;10.77;;
72125;SDS011;59999;51.676;22.650;2023-04-19T08:11:36;19.07;;;10.33;;
72125;SDS011;59999;51.676;22.650;2023-04-19T08:14:02;22.17;;;10.98;;
72125;SDS011;59999;51.676;22.650;2023-04-19T08:16:27;22.47;;;11.33;;
72125;SDS011;59999;51.676;22.650;2023-04-19T08:18:54;22.08;;;10.80;;
72125;SDS011;59999;51.676;22.650;2023-04-19T08:21:20;21.65;;;11.43;;
72125;SDS011;59999;51.676;22.650;2023-04-19T08:23:46;28.27;;;15.50;;
72125;SDS011;59999;51.676;22.650;2023-04-19T08:26:12;23.67;;;10.77;;
72125;SDS011;59999;51.676;22.650;2023-04-19T08:28:38;18.92;;;10.30;;
72125;SDS011;59999;51.676;22.650;2023-04-19T08:31:04;18.67;;;9.65;;
72125;SDS011;59999;51.676;22.650;2023-04-19T08:33:32;21.80;;;12.13;;
72125;SDS011;59999;51.676;22.650;2023-04-19T08:35:58;26.07;;;13.90;;
72125;SDS011;59999;51.676;22.650;2023-04-19T08:38:24;20.92;;;12.18;;
72125;SDS011;59999;51.676;22.650;2023-04-19T08:40:51;20.48;;;12.00;;
72125;SDS011;59999;51.676;22.650;2023-04-19T08:43:19;19.67;;;10.83;;
72125;SDS011;59999;51.676;22.650;2023-04-19T08:45:48;21.23;;;11.48;;
72125;SDS011;59999;51.676;22.650;2023-04-19T08:48:15;23.90;;;12.55;;
72125;SDS011;59999;51.676;22.650;2023-04-19T08:50:42;22.75;;;12.07;;
72125;SDS011;59999;51.676;22.650;2023-04-19T08:53:10;22.17;;;12.95;;
72125;SDS011;59999;51.676;22.650;2023-04-19T08:55:37;23.10;;;11.83;;
72125;SDS011;59999;51.676;22.650;2023-04-19T08:58:05;29.30;;;14.20;;
72125;SDS011;59999;51.676;22.650;2023-04-19T09:00:32;23.23;;;12.15;;
72125;SDS011;59999;51.676;22.650;2023-04-19T09:02:58;22.58;;;12.23;;
72125;SDS011;59999;51.676;22.650;2023-04-19T09:05:24;22.65;;;12.70;;
72125;SDS011;59999;51.676;22.650;2023-04-19T09:07:50;20.77;;;12.13;;
72125;SDS011;59999;51.676;22.650;2023-04-19T09:10:17;22.95;;;12.48;;
72125;SDS011;59999;51.676;22.650;2023-04-19T09:13:03;21.08;;;11.50;;
72125;SDS011;59999;51.676;22.650;2023-04-19T09:15:36;19.67;;;11.15;;
72125;SDS011;59999;51.676;22.650;2023-04-19T09:18:05;19.93;;;10.90;;
72125;SDS011;59999;51.676;22.650;2023-04-19T09:20:39;20.10;;;11.05;;
72125;SDS011;59999;51.676;22.650;2023-04-19T09:23:10;19.10;;;11.02;;
72125;SDS011;59999;51.676;22.650;2023-04-19T09:25:38;20.58;;;11.40;;
72125;SDS011;59999;51.676;22.650;2023-04-19T09:28:12;21.67;;;11.38;;
72125;SDS011;59999;51.676;22.650;2023-04-19T09:30:39;21.10;;;10.70;;
72125;SDS011;59999;51.676;22.650;2023-04-19T09:33:06;19.02;;;10.32;;
72125;SDS011;59999;51.676;22.650;2023-04-19T09:35:39;18.45;;;10.77;;
72125;SDS011;59999;51.676;22.650;2023-04-19T09:38:09;17.42;;;9.73;;
72125;SDS011;59999;51.676;22.650;2023-04-19T09:40:37;18.40;;;10.35;;
72125;SDS011;59999;51.676;22.650;2023-04-19T09:43:04;19.07;;;10.40;;
72125;SDS011;59999;51.676;22.650;2023-04-19T09:45:42;16.80;;;9.02;;
72125;SDS011;59999;51.676;22.650;2023-04-19T09:48:10;16.88;;;8.80;;
72125;SDS011;59999;51.676;22.650;2023-04-19T09:50:56;15.40;;;8.68;;
72125;SDS011;59999;51.676;22.650;2023-04-19T09:53:24;16.27;;;9.17;;
72125;SDS011;59999;51.676;22.650;2023-04-19T09:55:51;16.15;;;9.20;;
72125;SDS011;59999;51.676;22.650;2023-04-19T09:58:19;15.18;;;8.68;;
72125;SDS011;59999;51.676;22.650;2023-04-19T10:00:46;16.83;;;8.60;;
72125;SDS011;59999;51.676;22.650;2023-04-19T10:03:13;17.35;;;9.00;;
72125;SDS011;59999;51.676;22.650;2023-04-19T10:05:41;17.53;;;8.73;;
72125;SDS011;59999;51.676;22.650;2023-04-19T10:08:08;16.42;;;8.35;;
72125;SDS011;59999;51.676;22.650;2023-04-19T10:10:35;15.43;;;8.50;;
72125;SDS011;59999;51.676;22.650;2023-04-19T10:13:03;17.02;;;8.40;;
72125;SDS011;59999;51.676;22.650;2023-04-19T10:15:31;16.05;;;8.80;;
72125;SDS011;59999;51.676;22.650;2023-04-19T10:18:17;16.77;;;7.80;;
72125;SDS011;59999;51.676;22.650;2023-04-19T10:23:18;13.00;;;7.72;;
72125;SDS011;59999;51.676;22.650;2023-04-19T10:25:46;14.07;;;7.75;;
72125;SDS011;59999;51.676;22.650;2023-04-19T10:28:14;15.25;;;8.43;;
72125;SDS011;59999;51.676;22.650;2023-04-19T10:30:54;13.17;;;7.83;;
72125;SDS011;59999;51.676;22.650;2023-04-19T10:33:33;13.10;;;7.00;;
72125;SDS011;59999;51.676;22.650;2023-04-19T10:36:01;12.75;;;7.40;;
72125;SDS011;59999;51.676;22.650;2023-04-19T10:39:00;13.65;;;6.90;;
72125;SDS011;59999;51.676;22.650;2023-04-19T10:41:20;11.82;;;7.30;;
72125;SDS011;59999;51.676;22.650;2023-04-19T10:44:07;14.47;;;7.00;;
72125;SDS011;59999;51.676;22.650;2023-04-19T10:49:00;12.23;;;6.53;;
72125;SDS011;59999;51.676;22.650;2023-04-19T10:51:31;13.57;;;7.50;;
72125;SDS011;59999;51.676;22.650;2023-04-19T11:01:38;13.85;;;6.53;;
72125;SDS011;59999;51.676;22.650;2023-04-19T11:04:09;10.50;;;5.93;;
72125;SDS011;59999;51.676;22.650;2023-04-19T11:06:57;10.27;;;5.82;;
72125;SDS011;59999;51.676;22.650;2023-04-19T11:12:04;11.90;;;6.85;;
72125;SDS011;59999;51.676;22.650;2023-04-19T11:14:35;12.20;;;6.65;;
72125;SDS011;59999;51.676;22.650;2023-04-19T11:17:37;12.75;;;7.00;;
72125;SDS011;59999;51.676;22.650;2023-04-19T11:20:06;13.65;;;7.15;;
72125;SDS011;59999;51.676;22.650;2023-04-19T11:22:37;13.23;;;6.43;;
72125;SDS011;59999;51.676;22.650;2023-04-19T11:25:11;13.48;;;6.97;;
72125;SDS011;59999;51.676;22.650;2023-04-19T11:27:46;10.15;;;5.60;;
72125;SDS011;59999;51.676;22.650;2023-04-19T11:30:17;10.52;;;6.00;;
72125;SDS011;59999;51.676;22.650;2023-04-19T11:32:47;10.60;;;4.97;;
72125;SDS011;59999;51.676;22.650;2023-04-19T11:35:18;10.50;;;5.00;;
72125;SDS011;59999;51.676;22.650;2023-04-19T11:37:45;9.00;;;4.72;;
72125;SDS011;59999;51.676;22.650;2023-04-19T11:40:15;9.02;;;4.47;;
72125;SDS011;59999;51.676;22.650;2023-04-19T11:42:44;10.43;;;5.30;;
72125;SDS011;59999;51.676;22.650;2023-04-19T11:45:10;11.80;;;5.00;;
72125;SDS011;59999;51.676;22.650;2023-04-19T11:47:47;9.35;;;4.60;;
72125;SDS011;59999;51.676;22.650;2023-04-19T11:50:30;8.80;;;3.40;;
72125;SDS011;59999;51.676;22.650;2023-04-19T11:52:57;6.53;;;2.15;;
72125;SDS011;59999;51.676;22.650;2023-04-19T11:55:23;5.82;;;2.03;;
72125;SDS011;59999;51.676;22.650;2023-04-19T11:57:50;5.87;;;2.13;;
72125;SDS011;59999;51.676;22.650;2023-04-19T12:00:16;5.63;;;1.92;;
72125;SDS011;59999;51.676;22.650;2023-04-19T12:02:52;8.30;;;2.08;;
72125;SDS011;59999;51.676;22.650;2023-04-19T12:05:18;6.28;;;2.33;;
72125;SDS011;59999;51.676;22.650;2023-04-19T12:08:03;6.73;;;1.90;;
72125;SDS011;59999;51.676;22.650;2023-04-19T12:10:32;5.85;;;1.90;;
72125;SDS011;59999;51.676;22.650;2023-04-19T12:12:59;5.05;;;1.70;;
72125;SDS011;59999;51.676;22.650;2023-04-19T12:15:41;5.07;;;1.42;;
72125;SDS011;59999;51.676;22.650;2023-04-19T12:18:08;5.47;;;1.80;;
72125;SDS011;59999;51.676;22.650;2023-04-19T12:20:35;6.87;;;1.93;;
72125;SDS011;59999;51.676;22.650;2023-04-19T12:23:03;5.85;;;1.65;;
72125;SDS011;59999;51.676;22.650;2023-04-19T12:25:29;8.20;;;1.77;;
72125;SDS011;59999;51.676;22.650;2023-04-19T12:27:57;5.25;;;1.60;;
72125;SDS011;59999;51.676;22.650;2023-04-19T12:30:23;4.80;;;1.40;;
72125;SDS011;59999;51.676;22.650;2023-04-19T12:32:49;5.03;;;1.70;;
72125;SDS011;59999;51.676;22.650;2023-04-19T12:35:16;6.10;;;1.58;;
72125;SDS011;59999;51.676;22.650;2023-04-19T12:37:43;5.65;;;1.52;;
72125;SDS011;59999;51.676;22.650;2023-04-19T12:40:08;5.50;;;1.70;;
72125;SDS011;59999;51.676;22.650;2023-04-19T12:42:35;3.92;;;1.23;;
72125;SDS011;59999;51.676;22.650;2023-04-19T12:45:01;5.97;;;1.77;;
72125;SDS011;59999;51.676;22.650;2023-04-19T12:47:27;5.40;;;1.75;;
72125;SDS011;59999;51.676;22.650;2023-04-19T12:49:53;5.03;;;1.50;;
72125;SDS011;59999;51.676;22.650;2023-04-19T12:52:22;5.63;;;1.95;;
72125;SDS011;59999;51.676;22.650;2023-04-19T12:54:48;5.03;;;1.58;;
72125;SDS011;59999;51.676;22.650;2023-04-19T12:57:14;5.57;;;1.70;;
72125;SDS011;59999;51.676;22.650;2023-04-19T12:59:40;5.13;;;1.30;;
72125;SDS011;59999;51.676;22.650;2023-04-19T13:02:06;4.60;;;1.70;;
72125;SDS011;59999;51.676;22.650;2023-04-19T13:04:32;4.20;;;1.30;;
72125;SDS011;59999;51.676;22.650;2023-04-19T13:06:58;5.07;;;1.60;;
72125;SDS011;59999;51.676;22.650;2023-04-19T13:09:26;4.47;;;1.55;;
72125;SDS011;59999;51.676;22.650;2023-04-19T13:11:55;3.80;;;1.33;;
72125;SDS011;59999;51.676;22.650;2023-04-19T13:14:22;5.68;;;1.38;;
72125;SDS011;59999;51.676;22.650;2023-04-19T13:16:48;7.10;;;1.75;;
72125;SDS011;59999;51.676;22.650;2023-04-19T13:19:14;5.17;;;1.43;;
72125;SDS011;59999;51.676;22.650;2023-04-19T13:21:40;5.50;;;1.53;;
72125;SDS011;59999;51.676;22.650;2023-04-19T13:24:06;3.47;;;1.17;;
72125;SDS011;59999;51.676;22.650;2023-04-19T13:26:33;4.60;;;1.52;;
72125;SDS011;59999;51.676;22.650;2023-04-19T13:28:59;3.55;;;1.27;;
72125;SDS011;59999;51.676;22.650;2023-04-19T13:31:25;4.63;;;1.30;;
72125;SDS011;59999;51.676;22.650;2023-04-19T13:33:52;4.72;;;1.30;;
72125;SDS011;59999;51.676;22.650;2023-04-19T13:36:18;5.50;;;1.40;;
72125;SDS011;59999;51.676;22.650;2023-04-19T13:38:45;5.28;;;1.50;;
72125;SDS011;59999;51.676;22.650;2023-04-19T13:41:12;4.68;;;1.23;;
72125;SDS011;59999;51.676;22.650;2023-04-19T13:43:38;6.87;;;1.67;;
72125;SDS011;59999;51.676;22.650;2023-04-19T13:46:04;3.70;;;1.13;;
72125;SDS011;59999;51.676;22.650;2023-04-19T13:48:30;4.30;;;1.13;;
72125;SDS011;59999;51.676;22.650;2023-04-19T13:50:57;5.75;;;1.52;;
72125;SDS011;59999;51.676;22.650;2023-04-19T13:53:24;5.10;;;1.17;;
72125;SDS011;59999;51.676;22.650;2023-04-19T13:55:51;3.80;;;1.10;;
72125;SDS011;59999;51.676;22.650;2023-04-19T13:58:17;4.45;;;1.52;;
72125;SDS011;59999;51.676;22.650;2023-04-19T14:00:44;5.28;;;1.50;;
72125;SDS011;59999;51.676;22.650;2023-04-19T14:03:10;7.50;;;2.13;;
72125;SDS011;59999;51.676;22.650;2023-04-19T14:05:36;5.05;;;1.65;;
72125;SDS011;59999;51.676;22.650;2023-04-19T14:08:02;3.67;;;1.20;;
72125;SDS011;59999;51.676;22.650;2023-04-19T14:10:28;5.50;;;1.75;;
72125;SDS011;59999;51.676;22.650;2023-04-19T14:12:54;5.97;;;1.60;;
72125;SDS011;59999;51.676;22.650;2023-04-19T14:15:20;6.25;;;2.00;;
72125;SDS011;59999;51.676;22.650;2023-04-19T14:17:48;6.53;;;2.28;;
72125;SDS011;59999;51.676;22.650;2023-04-19T14:20:15;4.88;;;1.38;;
72125;SDS011;59999;51.676;22.650;2023-04-19T14:22:41;7.07;;;2.25;;
72125;SDS011;59999;51.676;22.650;2023-04-19T14:25:08;6.67;;;1.80;;
72125;SDS011;59999;51.676;22.650;2023-04-19T14:27:34;5.28;;;1.48;;
72125;SDS011;59999;51.676;22.650;2023-04-19T14:30:00;7.03;;;2.15;;
72125;SDS011;59999;51.676;22.650;2023-04-19T14:32:26;5.47;;;1.65;;
72125;SDS011;59999;51.676;22.650;2023-04-19T14:34:53;5.93;;;1.50;;
72125;SDS011;59999;51.676;22.650;2023-04-19T14:37:20;4.95;;;1.60;;
72125;SDS011;59999;51.676;22.650;2023-04-19T14:39:46;4.72;;;1.48;;